createdAt,value
2023-03-17T00:04:55.908Z,58.50
2023-03-17T00:14:59.728Z,58.44
2023-03-17T00:25:02.149Z,57.72
2023-03-17T00:35:06.742Z,59.17
2023-03-17T00:45:10.194Z,59.72
2023-03-17T00:55:14.307Z,60.54
2023-03-17T01:05:17.182Z,60.17
2023-03-17T01:15:21.664Z,59.84
2023-03-17T01:25:25.323Z,59.66
2023-03-17T01:35:30.230Z,60.21
2023-03-17T01:45:51.668Z,60.84
2023-03-17T01:55:57.903Z,59.67
2023-03-17T02:06:00.587Z,61.07
2023-03-17T02:16:05.695Z,60.66
2023-03-17T02:26:09.653Z,59.63
2023-03-17T02:36:12.146Z,56.05
2023-03-17T02:46:16.733Z,55.87
2023-03-17T02:56:19.239Z,57.46
2023-03-17T03:06:23.702Z,55.97
2023-03-17T03:16:26.277Z,56.69
2023-03-17T03:26:30.166Z,56.42
2023-03-17T03:36:33.294Z,55.06
2023-03-17T03:46:37.153Z,56.04
2023-03-17T03:56:39.658Z,56.35
2023-03-17T04:06:43.667Z,55.67
2023-03-17T04:16:46.299Z,57.30
2023-03-17T04:26:50.182Z,56.49
2023-03-17T04:36:53.133Z,56.78
2023-03-17T04:46:56.945Z,56.17
2023-03-17T04:56:59.416Z,58.53
2023-03-17T05:07:03.218Z,58.78
2023-03-17T05:17:05.711Z,59.84
2023-03-17T05:27:09.753Z,58.35
2023-03-17T05:37:12.674Z,58.71
2023-03-17T05:47:16.507Z,57.42
2023-03-17T05:57:19.147Z,55.21
2023-03-17T06:07:22.947Z,55.36
2023-03-17T06:17:25.412Z,55.99
2023-03-17T06:27:29.289Z,56.38
2023-03-17T06:37:31.779Z,56.38
2023-03-17T06:47:37.219Z,57.60
2023-03-17T06:57:39.678Z,55.70
2023-03-17T07:07:43.548Z,55.91
2023-03-17T07:17:46.901Z,55.57
2023-03-17T07:27:51.910Z,56.04
2023-03-17T07:37:54.380Z,55.60
2023-03-17T07:47:58.223Z,55.16
2023-03-17T07:58:00.846Z,55.56
2023-03-17T08:08:05.241Z,55.14
2023-03-17T08:18:08.005Z,54.26
2023-03-17T08:28:11.755Z,52.40
2023-03-17T08:38:14.290Z,51.21
2023-03-17T08:48:18.132Z,48.40
2023-03-17T08:58:20.603Z,48.77
2023-03-17T09:08:24.787Z,49.12
2023-03-17T09:18:27.325Z,47.54
2023-03-17T09:28:31.140Z,44.95
2023-03-17T09:38:33.615Z,44.07
2023-03-17T09:48:46.431Z,48.97
2023-03-17T09:58:52.773Z,46.47
2023-03-17T10:09:00.626Z,45.49
2023-03-17T10:19:05.687Z,44.00
2023-03-17T10:29:14.159Z,42.52
2023-03-17T10:39:18.585Z,44.13
2023-03-17T10:49:24.553Z,40.86
2023-03-17T10:59:28.939Z,41.74
2023-03-17T11:09:35.600Z,41.06
2023-03-17T11:19:43.378Z,38.74
2023-03-17T11:29:54.435Z,39.91
2023-03-17T11:40:04.141Z,37.73
2023-03-17T11:50:17.783Z,35.11
2023-03-17T12:00:23.679Z,37.14
2023-03-17T12:10:31.112Z,36.92
2023-03-17T12:20:39.378Z,35.98
2023-03-17T12:30:46.150Z,34.86
2023-03-17T12:40:59.607Z,33.59
2023-03-17T12:51:18.999Z,30.49
2023-03-17T13:01:26.647Z,31.75
2023-03-17T13:11:46.595Z,34.57
2023-03-17T13:21:54.120Z,34.37
2023-03-17T13:32:11.421Z,33.65
2023-03-17T13:42:20.670Z,31.29
2023-03-17T13:52:28.351Z,28.65
2023-03-17T14:02:35.049Z,28.36
2023-03-17T14:12:40.881Z,27.31
2023-03-17T14:22:45.967Z,28.86
2023-03-17T14:32:49.907Z,29.98
2023-03-17T14:42:53.773Z,31.94
2023-03-17T14:52:56.622Z,30.67
2023-03-17T15:03:02.205Z,33.55
2023-03-17T15:13:05.849Z,35.30
2023-03-17T15:23:16.972Z,36.14
2023-03-17T15:33:22.117Z,37.17
2023-03-17T15:43:26.003Z,36.17
2023-03-17T15:53:28.556Z,36.83
2023-03-17T16:03:33.638Z,36.05
2023-03-17T16:13:36.124Z,36.01
2023-03-17T16:23:39.996Z,36.53
2023-03-17T16:33:43.186Z,36.21
2023-03-17T16:43:50.892Z,36.39
2023-03-17T16:53:53.392Z,36.85
2023-03-17T17:03:57.351Z,40.08
2023-03-17T17:13:59.781Z,38.22
2023-03-17T17:24:03.646Z,37.67
2023-03-17T17:34:06.129Z,37.20
2023-03-17T17:44:10.018Z,37.24
2023-03-17T17:54:12.477Z,38.36
2023-03-17T18:04:16.466Z,38.17
2023-03-17T18:14:18.921Z,38.67
2023-03-17T18:24:22.731Z,38.85
2023-03-17T18:34:26.974Z,38.41
2023-03-17T18:55:34.257Z,40.07
2023-03-17T19:05:39.395Z,40.80
2023-03-17T19:15:43.306Z,41.43
2023-03-17T19:25:45.947Z,42.04
2023-03-17T19:35:53.877Z,42.89
2023-03-17T19:45:56.698Z,43.22
2023-03-17T19:56:00.682Z,43.51
2023-03-17T20:06:06.019Z,43.52
2023-03-17T20:16:10.144Z,43.73
2023-03-17T20:26:13.057Z,44.35
2023-03-17T20:36:16.891Z,44.42
2023-03-17T20:46:20.523Z,44.76
2023-03-17T20:56:29.684Z,45.06
2023-03-17T21:06:48.473Z,45.54
2023-03-17T21:16:53.335Z,46.92
2023-03-17T21:26:56.518Z,47.44
2023-03-17T21:37:14.017Z,47.44
2023-03-17T21:47:17.889Z,47.05
2023-03-17T21:57:20.392Z,47.55
2023-03-17T22:07:24.208Z,48.02
2023-03-17T22:17:27.066Z,48.54
2023-03-17T22:27:30.954Z,47.93
2023-03-17T22:37:33.578Z,48.86
2023-03-17T22:47:37.478Z,49.84
2023-03-17T22:57:40.298Z,50.20
2023-03-17T23:07:51.897Z,50.29
2023-03-17T23:17:54.511Z,50.37
2023-03-17T23:27:58.374Z,50.99
2023-03-17T23:38:02.203Z,51.24
2023-03-17T23:48:10.002Z,51.18
2023-03-17T23:58:15.674Z,50.91
